Bloomington, Illinois
Current Conditions -  °F | °C
As of 10:56 PM on Sunday 19 Oct 2014 (Local Time) from KBMI Reporting Station
Broken Clouds Broken Clouds  
Wind Chill: 53°   Ceiling: 10000
Heat Index: 53°   Visibility: 10mi
Dew Point: 45°   Wind: 14mph
Humidity: 74%   Direction: 210°SSW
Pressure: 29.99"   Gusts: NA
Location:  40.49°N, 89°W
Report Text: KBMI 200356Z 21012KT 10SM BKN100 12/07 A2999 RMK AO2 T01160072 SLP157
Loading
Personal Weather Stations






























Interactive Weather Map
Tropical Storm Tracking
New forecast layout! Learn more

10-Day Weather Forecast

Advertisements
Track Severe Weather on mobile